createdAt,value
2019-03-21T00:01:53.425Z,65.50
2019-03-21T00:04:22.706Z,65.17
2019-03-21T00:06:51.960Z,65.35
2019-03-21T00:09:21.410Z,66.82
2019-03-21T00:12:09.997Z,66.58
2019-03-21T00:14:45.899Z,66.51
2019-03-21T00:17:16.117Z,66.19
2019-03-21T00:19:45.486Z,66.02
2019-03-21T00:22:14.944Z,65.86
2019-03-21T00:24:44.416Z,66.54
2019-03-21T00:27:13.776Z,67.17
2019-03-21T00:29:43.100Z,66.90
2019-03-21T00:32:12.706Z,67.16
2019-03-21T00:34:42.112Z,66.94
2019-03-21T00:37:11.403Z,67.52
2019-03-21T00:39:40.798Z,67.43
2019-03-21T00:42:11.878Z,67.01
2019-03-21T00:44:41.277Z,66.92
2019-03-21T00:47:10.644Z,66.44
2019-03-21T00:49:39.926Z,67.40
2019-03-21T00:52:09.400Z,67.77
2019-03-21T00:54:38.677Z,67.68
2019-03-21T00:57:08.110Z,67.70
2019-03-21T00:59:37.373Z,68.46
2019-03-21T01:02:06.704Z,68.49
2019-03-21T01:04:36.270Z,68.49
2019-03-21T01:07:07.979Z,68.59
2019-03-21T01:09:39.510Z,68.51
2019-03-21T01:12:10.696Z,68.68
2019-03-21T01:14:40.057Z,69.26
2019-03-21T01:17:10.601Z,68.88
2019-03-21T01:19:39.992Z,68.49
2019-03-21T01:22:09.405Z,69.05
2019-03-21T01:24:38.765Z,68.69
2019-03-21T01:27:08.101Z,68.68
2019-03-21T01:29:37.435Z,67.98
2019-03-21T01:32:06.795Z,67.69
2019-03-21T01:34:36.160Z,68.27
2019-03-21T01:37:05.632Z,68.69
2019-03-21T01:39:34.984Z,68.51
2019-03-21T01:42:04.278Z,68.78
2019-03-21T01:44:41.035Z,69.33
2019-03-21T01:47:04.788Z,69.80
2019-03-21T01:49:34.301Z,69.07
2019-03-21T01:52:03.694Z,69.40
2019-03-21T01:54:33.018Z,69.11
2019-03-21T01:57:02.303Z,69.23
2019-03-21T01:59:31.701Z,68.63
2019-03-21T02:02:00.994Z,68.69
2019-03-21T02:04:30.388Z,68.87
2019-03-21T02:06:59.676Z,68.52
2019-03-21T02:09:28.936Z,68.43
2019-03-21T02:11:58.314Z,68.80
2019-03-21T02:14:30.396Z,69.50
2019-03-21T02:16:59.762Z,70.47
2019-03-21T02:19:29.044Z,69.89
2019-03-21T02:21:58.300Z,69.49
2019-03-21T02:24:30.267Z,69.59
2019-03-21T02:26:59.591Z,69.62
2019-03-21T02:29:28.984Z,70.09
2019-03-21T02:31:58.818Z,70.36
2019-03-21T02:34:28.255Z,70.00
2019-03-21T02:36:57.583Z,70.79
2019-03-21T02:39:26.876Z,70.00
2019-03-21T02:41:56.258Z,70.81
2019-03-21T02:44:25.658Z,70.03
2019-03-21T02:46:55.568Z,70.14
2019-03-21T02:49:24.820Z,70.44
2019-03-21T02:51:54.046Z,70.65
2019-03-21T02:54:23.437Z,70.12
2019-03-21T02:56:53.163Z,69.95
2019-03-21T02:59:22.557Z,70.05
2019-03-21T03:01:51.888Z,70.35
2019-03-21T03:04:21.292Z,70.03
2019-03-21T03:06:50.683Z,69.69
2019-03-21T03:09:20.158Z,69.63
2019-03-21T03:11:50.362Z,70.27
2019-03-21T03:14:19.806Z,69.86
2019-03-21T03:16:49.260Z,69.88
2019-03-21T03:19:18.510Z,70.16
2019-03-21T03:21:47.854Z,70.37
2019-03-21T03:24:17.736Z,70.75
2019-03-21T03:26:50.039Z,71.09
2019-03-21T03:29:19.381Z,71.23
2019-03-21T03:31:48.797Z,71.65
2019-03-21T03:34:18.237Z,71.81
2019-03-21T03:36:47.606Z,71.92
2019-03-21T03:39:16.915Z,71.86
2019-03-21T03:41:46.247Z,72.13
2019-03-21T03:44:15.460Z,72.14
2019-03-21T03:46:44.784Z,72.01
2019-03-21T03:49:14.073Z,72.47
2019-03-21T03:51:43.361Z,72.39
2019-03-21T03:54:12.871Z,71.88
2019-03-21T03:56:42.379Z,72.01
2019-03-21T03:59:11.817Z,71.98
2019-03-21T04:01:41.134Z,72.07
2019-03-21T04:04:10.709Z,71.66
2019-03-21T04:06:42.970Z,71.85
2019-03-21T04:09:12.329Z,71.96
2019-03-21T04:11:41.615Z,71.88
2019-03-21T04:14:11.121Z,71.88
2019-03-21T04:16:40.487Z,72.21
2019-03-21T04:19:09.776Z,72.18
2019-03-21T04:21:39.166Z,72.35
2019-03-21T04:24:08.458Z,73.09
2019-03-21T04:26:37.968Z,72.65
2019-03-21T04:29:07.346Z,72.61
2019-03-21T04:31:36.828Z,72.51
2019-03-21T04:34:07.620Z,71.90
2019-03-21T04:36:37.031Z,71.91
2019-03-21T04:39:08.800Z,71.57
2019-03-21T04:41:38.857Z,71.54
2019-03-21T04:44:08.296Z,71.41
2019-03-21T04:46:37.718Z,71.26
2019-03-21T04:49:07.309Z,71.27
2019-03-21T04:51:36.844Z,71.13
2019-03-21T04:54:06.397Z,71.13
2019-03-21T04:56:35.892Z,71.51
2019-03-21T04:59:06.065Z,71.51
2019-03-21T05:01:37.739Z,71.95
2019-03-21T05:04:07.387Z,72.70
2019-03-21T05:06:36.647Z,72.91
2019-03-21T05:09:09.114Z,72.55
2019-03-21T05:11:38.474Z,72.55
2019-03-21T05:14:07.880Z,72.08
2019-03-21T05:16:47.823Z,71.76
2019-03-21T05:19:19.526Z,71.39
2019-03-21T05:21:49.142Z,71.22
2019-03-21T05:24:18.829Z,71.35
2019-03-21T05:26:53.360Z,71.59
2019-03-21T05:29:22.900Z,71.44
2019-03-21T05:31:52.483Z,71.44
2019-03-21T05:34:22.104Z,71.67
2019-03-21T05:36:51.724Z,71.69
2019-03-21T05:39:21.116Z,71.69
2019-03-21T05:41:50.593Z,71.15
2019-03-21T05:44:30.795Z,71.15
2019-03-21T05:46:59.860Z,71.09
2019-03-21T05:49:29.197Z,71.96
2019-03-21T05:51:58.651Z,71.84
2019-03-21T05:54:28.209Z,71.96
2019-03-21T05:56:57.761Z,71.54
2019-03-21T05:59:27.477Z,71.73
2019-03-21T06:01:57.976Z,71.40
2019-03-21T06:04:27.432Z,70.77
2019-03-21T06:07:08.408Z,70.69
2019-03-21T06:09:37.730Z,70.44
2019-03-21T06:12:07.467Z,70.55
2019-03-21T06:14:38.508Z,71.22
2019-03-21T06:17:08.017Z,70.82
2019-03-21T06:19:57.993Z,70.13
2019-03-21T06:23:17.485Z,70.04
2019-03-21T06:26:13.851Z,70.88
2019-03-21T06:28:43.357Z,72.36
2019-03-21T06:31:12.719Z,72.95
2019-03-21T06:33:42.232Z,71.23
2019-03-21T06:36:11.965Z,67.88
2019-03-21T06:38:42.751Z,62.88
2019-03-21T06:41:12.211Z,60.19
2019-03-21T06:43:41.624Z,56.86
2019-03-21T06:46:11.234Z,54.41
2019-03-21T06:48:40.629Z,54.12
2019-03-21T06:51:09.987Z,53.06
2019-03-21T06:53:39.495Z,52.33
2019-03-21T06:56:08.942Z,51.98
2019-03-21T06:58:38.589Z,51.01
2019-03-21T07:01:08.062Z,52.21
2019-03-21T07:03:37.528Z,50.78
2019-03-21T07:06:07.034Z,50.51
2019-03-21T07:08:39.704Z,49.52
2019-03-21T07:11:09.901Z,47.12
2019-03-21T07:13:39.331Z,45.11
2019-03-21T07:16:09.518Z,42.17
2019-03-21T07:18:38.898Z,41.98
2019-03-21T07:21:08.286Z,39.91
2019-03-21T07:23:37.756Z,37.60
2019-03-21T07:26:07.456Z,36.16
2019-03-21T07:28:38.571Z,37.54
2019-03-21T07:31:08.224Z,36.29
2019-03-21T07:33:37.744Z,36.29
2019-03-21T07:36:07.172Z,36.29
2019-03-21T07:38:39.968Z,36.69
2019-03-21T07:41:09.948Z,36.41
2019-03-21T07:43:39.280Z,36.69
2019-03-21T07:46:08.715Z,36.21
2019-03-21T07:48:38.498Z,36.21
2019-03-21T07:51:08.115Z,36.32
2019-03-21T07:53:37.763Z,36.92
2019-03-21T07:56:07.331Z,38.55
2019-03-21T07:58:36.737Z,39.25
2019-03-21T08:01:06.279Z,40.35
2019-03-21T08:03:35.670Z,41.58
2019-03-21T08:06:05.285Z,40.34
2019-03-21T08:08:34.734Z,38.71
2019-03-21T08:11:04.239Z,40.52
2019-03-21T08:13:33.780Z,39.62
2019-03-21T08:16:03.468Z,40.05
2019-03-21T08:18:32.897Z,40.90
2019-03-21T08:21:02.294Z,39.54
2019-03-21T08:23:31.878Z,38.81
2019-03-21T08:26:01.550Z,37.31
2019-03-21T08:28:31.149Z,39.98
2019-03-21T08:31:16.739Z,38.33
2019-03-21T08:33:46.507Z,35.81
2019-03-21T08:36:16.594Z,34.61
2019-03-21T08:38:46.218Z,32.61
2019-03-21T08:41:15.874Z,32.67
2019-03-21T08:43:45.385Z,33.23
2019-03-21T08:46:14.887Z,31.93
2019-03-21T08:48:44.644Z,30.13
2019-03-21T08:51:14.226Z,32.17
2019-03-21T08:53:43.772Z,33.22
2019-03-21T08:56:13.203Z,32.37
2019-03-21T08:58:42.791Z,32.29
2019-03-21T09:01:12.302Z,31.38
2019-03-21T09:03:41.884Z,32.45
2019-03-21T09:06:11.411Z,32.55
2019-03-21T09:08:41.041Z,32.98
2019-03-21T09:11:10.551Z,31.54
2019-03-21T09:13:39.937Z,33.26
2019-03-21T09:16:10.943Z,33.44
2019-03-21T09:18:40.527Z,32.36
2019-03-21T09:21:19.120Z,33.00
2019-03-21T09:23:41.007Z,32.19
2019-03-21T09:26:10.331Z,32.83
2019-03-21T09:28:39.805Z,32.91
2019-03-21T09:31:09.274Z,33.83
2019-03-21T09:33:38.673Z,32.74
2019-03-21T09:36:08.036Z,32.23
2019-03-21T09:38:37.586Z,32.28
2019-03-21T09:41:07.015Z,33.58
2019-03-21T09:43:36.521Z,31.94
2019-03-21T09:46:06.139Z,32.16
2019-03-21T09:48:35.643Z,31.87
2019-03-21T09:51:05.139Z,34.03
2019-03-21T09:53:34.602Z,33.06
2019-03-21T09:56:03.914Z,33.31
2019-03-21T09:58:33.285Z,35.40
2019-03-21T10:01:02.619Z,33.66
2019-03-21T10:03:32.031Z,35.11
2019-03-21T10:06:01.270Z,33.89
2019-03-21T10:08:30.548Z,35.20
2019-03-21T10:10:59.880Z,32.73
2019-03-21T10:13:29.192Z,33.01
2019-03-21T10:15:58.522Z,32.16
2019-03-21T10:18:27.837Z,33.83
2019-03-21T10:20:57.112Z,32.17
2019-03-21T10:23:26.480Z,32.16
2019-03-21T10:25:56.564Z,32.30
2019-03-21T10:28:25.985Z,34.22
2019-03-21T10:30:57.251Z,31.74
2019-03-21T10:33:26.409Z,32.42
2019-03-21T10:35:55.732Z,30.89
2019-03-21T10:38:24.987Z,32.78
2019-03-21T10:40:55.385Z,31.80
2019-03-21T10:43:24.630Z,34.83
2019-03-21T10:45:53.995Z,32.84
2019-03-21T10:48:23.646Z,31.23
2019-03-21T10:50:53.039Z,30.74
2019-03-21T10:53:22.460Z,30.80
2019-03-21T10:55:51.861Z,31.20
2019-03-21T10:58:21.299Z,29.75
2019-03-21T11:00:50.666Z,32.01
2019-03-21T11:03:20.057Z,30.87
2019-03-21T11:05:49.438Z,31.40
2019-03-21T11:08:19.004Z,30.03
2019-03-21T11:10:48.449Z,31.87
2019-03-21T11:13:17.956Z,32.44
2019-03-21T11:15:47.280Z,30.98
2019-03-21T11:18:16.505Z,31.60
2019-03-21T11:20:45.831Z,30.63
2019-03-21T11:23:15.093Z,31.65
2019-03-21T11:25:47.540Z,32.22
2019-03-21T11:28:17.832Z,32.24
2019-03-21T11:30:47.297Z,31.70
2019-03-21T11:33:16.656Z,32.66
2019-03-21T11:35:48.928Z,32.88
2019-03-21T11:38:18.370Z,30.16
2019-03-21T11:40:48.556Z,33.94
2019-03-21T11:43:19.547Z,30.82
2019-03-21T11:45:48.942Z,31.67
2019-03-21T11:48:19.405Z,33.32
2019-03-21T11:50:48.779Z,31.39
2019-03-21T11:53:18.236Z,30.29
2019-03-21T11:55:47.855Z,30.47
2019-03-21T11:58:17.821Z,31.84
2019-03-21T12:00:47.267Z,33.08
2019-03-21T12:03:16.555Z,30.51
2019-03-21T12:05:45.853Z,30.83
2019-03-21T12:08:15.294Z,30.80
2019-03-21T12:10:44.972Z,30.80
2019-03-21T12:13:14.484Z,32.98
2019-03-21T12:15:44.001Z,32.64
2019-03-21T12:18:13.451Z,33.19
2019-03-21T12:20:42.796Z,31.33
2019-03-21T12:23:14.018Z,30.79
2019-03-21T12:25:43.698Z,32.97
2019-03-21T12:28:13.175Z,30.72
2019-03-21T12:30:43.556Z,28.84
2019-03-21T12:33:15.386Z,30.38
2019-03-21T12:35:44.846Z,31.40
2019-03-21T12:38:14.326Z,28.59
2019-03-21T12:40:43.708Z,29.82
2019-03-21T12:43:14.258Z,28.79
2019-03-21T12:45:43.531Z,30.10
2019-03-21T12:48:13.017Z,30.90
2019-03-21T12:50:42.298Z,29.34
2019-03-21T12:53:11.784Z,30.91
2019-03-21T12:55:41.241Z,31.21
2019-03-21T12:58:10.617Z,30.82
2019-03-21T13:00:44.027Z,29.11
2019-03-21T13:03:13.837Z,29.35
2019-03-21T13:05:43.307Z,27.83
2019-03-21T13:08:13.866Z,27.81
2019-03-21T13:10:43.418Z,30.03
2019-03-21T13:13:12.770Z,28.21
2019-03-21T13:15:43.493Z,27.66
2019-03-21T13:18:12.897Z,25.61
2019-03-21T13:20:42.282Z,25.49
2019-03-21T13:23:11.747Z,25.95
2019-03-21T13:25:41.103Z,28.42
2019-03-21T13:28:10.660Z,28.13
2019-03-21T13:30:41.521Z,26.51
2019-03-21T13:33:12.533Z,29.54
2019-03-21T13:35:41.884Z,27.22
2019-03-21T13:38:11.150Z,28.17
2019-03-21T13:40:40.757Z,26.48
2019-03-21T13:43:11.453Z,26.21
2019-03-21T13:45:40.815Z,27.00
2019-03-21T13:48:13.016Z,28.98
2019-03-21T13:50:42.516Z,26.41
2019-03-21T13:53:18.644Z,27.44
2019-03-21T13:55:43.156Z,27.75
2019-03-21T13:58:16.509Z,27.63
2019-03-21T14:00:45.746Z,28.33
2019-03-21T14:03:24.632Z,26.81
2019-03-21T14:05:46.354Z,28.08
2019-03-21T14:08:15.667Z,27.81
2019-03-21T14:10:45.246Z,28.12
2019-03-21T14:13:14.527Z,28.55
2019-03-21T14:15:44.103Z,29.71
2019-03-21T14:18:13.563Z,30.60
2019-03-21T14:20:42.791Z,28.76
2019-03-21T14:23:17.203Z,28.43
2019-03-21T14:25:43.405Z,29.70
2019-03-21T14:28:12.789Z,30.31
2019-03-21T14:30:42.071Z,30.40
2019-03-21T14:33:11.538Z,31.45
2019-03-21T14:35:40.998Z,28.47
2019-03-21T14:38:10.303Z,29.49
2019-03-21T14:40:39.712Z,27.68
2019-03-21T14:43:09.121Z,29.29
2019-03-21T14:45:38.687Z,29.41
2019-03-21T14:48:08.202Z,27.93
2019-03-21T14:50:37.491Z,29.19
2019-03-21T14:53:06.761Z,27.63
2019-03-21T14:55:47.134Z,28.06
2019-03-21T14:58:07.260Z,28.08
2019-03-21T15:00:36.590Z,27.75
2019-03-21T15:03:06.036Z,28.25
2019-03-21T15:05:35.380Z,28.31
2019-03-21T15:08:04.884Z,26.05
2019-03-21T15:10:34.330Z,28.77
2019-03-21T15:13:03.827Z,29.59
2019-03-21T15:15:33.205Z,27.53
2019-03-21T15:18:02.817Z,28.09
2019-03-21T15:20:32.105Z,28.06
2019-03-21T15:23:01.506Z,26.90
2019-03-21T15:25:30.874Z,26.50
2019-03-21T15:28:00.185Z,26.58
2019-03-21T15:30:29.618Z,27.53
2019-03-21T15:32:59.023Z,26.51
2019-03-21T15:35:28.450Z,26.70
2019-03-21T15:37:57.974Z,28.74
2019-03-21T15:40:27.260Z,27.86
2019-03-21T15:42:57.156Z,26.68
2019-03-21T15:45:26.844Z,26.30
2019-03-21T15:47:58.587Z,30.41
2019-03-21T15:50:33.070Z,27.79
2019-03-21T15:53:02.505Z,28.30
2019-03-21T15:55:31.909Z,28.17
2019-03-21T15:58:01.464Z,27.74
2019-03-21T16:00:35.565Z,27.64
2019-03-21T16:03:05.827Z,26.92
2019-03-21T16:05:35.496Z,30.24
2019-03-21T16:08:05.056Z,28.36
2019-03-21T16:10:34.475Z,27.75
2019-03-21T16:13:03.826Z,29.44
2019-03-21T16:15:33.257Z,30.55
2019-03-21T16:18:02.730Z,29.16
2019-03-21T16:20:32.143Z,30.10
2019-03-21T16:23:01.635Z,28.14
2019-03-21T16:25:31.023Z,29.32
2019-03-21T16:28:00.370Z,29.57
2019-03-21T16:30:29.779Z,30.85
2019-03-21T16:32:59.272Z,32.04
2019-03-21T16:35:31.274Z,28.49
2019-03-21T16:38:03.199Z,29.27
2019-03-21T16:40:35.983Z,29.03
2019-03-21T16:43:05.884Z,30.66
2019-03-21T16:45:35.326Z,28.31
2019-03-21T16:48:05.011Z,30.12
2019-03-21T16:50:34.603Z,29.41
2019-03-21T16:53:04.235Z,31.48
2019-03-21T16:55:36.321Z,29.75
2019-03-21T16:58:05.721Z,28.68
2019-03-21T17:00:35.016Z,29.31
2019-03-21T17:03:04.531Z,29.47
2019-03-21T17:05:34.115Z,28.54
2019-03-21T17:08:11.130Z,29.66
2019-03-21T17:10:34.818Z,29.75
2019-03-21T17:13:05.029Z,31.10
2019-03-21T17:15:35.671Z,31.73
2019-03-21T17:18:05.100Z,33.44
2019-03-21T17:20:36.019Z,34.85
2019-03-21T17:23:06.763Z,36.00
2019-03-21T17:25:36.152Z,36.20
2019-03-21T17:28:08.691Z,33.83
2019-03-21T17:30:38.060Z,35.09
2019-03-21T17:33:07.395Z,34.51
2019-03-21T17:35:36.868Z,34.65
2019-03-21T17:38:06.373Z,35.73
2019-03-21T17:40:36.792Z,35.47
2019-03-21T17:43:06.195Z,36.07
2019-03-21T17:45:35.607Z,35.94
2019-03-21T17:48:05.443Z,35.93
2019-03-21T17:50:34.919Z,35.34
2019-03-21T17:53:04.250Z,35.73
2019-03-21T17:55:33.644Z,35.30
2019-03-21T17:58:03.038Z,35.21
2019-03-21T18:00:33.604Z,35.26
2019-03-21T18:03:03.174Z,35.09
2019-03-21T18:05:32.593Z,35.88
2019-03-21T18:08:02.134Z,35.87
2019-03-21T18:10:32.648Z,35.14
2019-03-21T18:13:02.587Z,35.75
2019-03-21T18:15:32.179Z,34.96
2019-03-21T18:18:03.114Z,36.25
2019-03-21T18:20:32.675Z,38.72
2019-03-21T18:23:02.049Z,39.88
2019-03-21T18:25:31.434Z,38.91
2019-03-21T18:28:00.968Z,37.66
2019-03-21T18:30:30.299Z,37.19
2019-03-21T18:32:59.638Z,38.04
2019-03-21T18:35:29.010Z,38.97
2019-03-21T18:37:58.429Z,38.71
2019-03-21T18:40:28.006Z,38.76
2019-03-21T18:42:59.691Z,38.30
2019-03-21T18:45:28.877Z,38.90
2019-03-21T18:47:58.403Z,39.49
2019-03-21T18:50:28.801Z,39.68
2019-03-21T18:52:58.199Z,38.51
2019-03-21T18:55:27.552Z,39.11
2019-03-21T18:57:56.829Z,37.55
2019-03-21T19:00:26.265Z,38.21
2019-03-21T19:02:55.604Z,39.23
2019-03-21T19:05:24.902Z,39.25
2019-03-21T19:07:54.460Z,39.43
2019-03-21T19:10:24.761Z,39.93
2019-03-21T19:12:54.152Z,40.25
2019-03-21T19:15:23.535Z,41.06
2019-03-21T19:17:54.915Z,39.48
2019-03-21T19:20:24.212Z,38.92
2019-03-21T19:22:53.599Z,40.89
2019-03-21T19:25:23.019Z,39.36
2019-03-21T19:27:52.629Z,41.35
2019-03-21T19:30:22.492Z,40.50
2019-03-21T19:32:51.975Z,40.60
2019-03-21T19:35:21.478Z,42.33
2019-03-21T19:37:50.816Z,44.06
2019-03-21T19:40:21.198Z,42.94
2019-03-21T19:42:50.566Z,42.24
2019-03-21T19:45:20.046Z,42.48
2019-03-21T19:47:49.498Z,42.70
2019-03-21T19:50:18.916Z,43.64
2019-03-21T19:52:48.491Z,43.33
2019-03-21T19:55:25.891Z,45.71
2019-03-21T19:57:49.242Z,44.46
2019-03-21T20:00:20.462Z,44.85
2019-03-21T20:02:49.674Z,44.58
2019-03-21T20:05:19.036Z,44.80
2019-03-21T20:07:48.396Z,45.97
2019-03-21T20:10:20.904Z,46.35
2019-03-21T20:12:50.310Z,44.74
2019-03-21T20:15:20.175Z,44.53
2019-03-21T20:17:49.502Z,45.84
2019-03-21T20:20:18.893Z,46.34
2019-03-21T20:22:48.335Z,47.14
2019-03-21T20:25:17.650Z,47.96
2019-03-21T20:27:47.206Z,48.64
2019-03-21T20:30:17.975Z,48.68
2019-03-21T20:32:47.577Z,48.88
2019-03-21T20:35:17.182Z,49.76
2019-03-21T20:37:46.598Z,49.75
2019-03-21T20:40:16.332Z,50.31
2019-03-21T20:42:51.605Z,50.64
2019-03-21T20:45:22.464Z,50.51
2019-03-21T20:47:53.006Z,50.66
2019-03-21T20:50:22.368Z,51.50
2019-03-21T20:52:52.892Z,51.61
2019-03-21T20:55:22.223Z,52.85
2019-03-21T20:57:51.578Z,53.12
2019-03-21T21:00:21.360Z,52.48
2019-03-21T21:02:52.132Z,52.66
2019-03-21T21:05:23.080Z,52.19
2019-03-21T21:07:52.800Z,51.65
2019-03-21T21:10:22.308Z,52.36
2019-03-21T21:12:52.729Z,52.76
2019-03-21T21:15:22.238Z,54.46
2019-03-21T21:17:51.560Z,53.65
2019-03-21T21:20:20.947Z,53.35
2019-03-21T21:22:50.376Z,54.10
2019-03-21T21:25:19.810Z,54.89
2019-03-21T21:27:52.266Z,54.75
2019-03-21T21:30:21.947Z,53.63
2019-03-21T21:32:54.443Z,53.84
2019-03-21T21:35:24.769Z,54.47
2019-03-21T21:37:54.055Z,54.68
2019-03-21T21:40:23.423Z,54.77
2019-03-21T21:42:52.825Z,54.71
2019-03-21T21:45:22.358Z,55.09
2019-03-21T21:47:53.725Z,57.62
2019-03-21T21:50:23.790Z,56.11
2019-03-21T21:52:54.168Z,56.43
2019-03-21T21:55:24.311Z,56.37
2019-03-21T21:57:53.942Z,57.83
2019-03-21T22:00:24.069Z,57.99
2019-03-21T22:02:53.713Z,57.45
2019-03-21T22:05:23.624Z,57.58
2019-03-21T22:07:53.333Z,58.20
2019-03-21T22:10:25.837Z,59.25
2019-03-21T22:12:56.525Z,61.33
2019-03-21T22:15:26.196Z,60.33
2019-03-21T22:17:55.732Z,60.78
2019-03-21T22:20:25.302Z,61.04
2019-03-21T22:22:54.952Z,60.98
2019-03-21T22:25:24.310Z,60.32
2019-03-21T22:27:53.630Z,61.00
2019-03-21T22:30:23.082Z,62.10
2019-03-21T22:32:52.632Z,62.16
2019-03-21T22:35:22.092Z,62.66
2019-03-21T22:37:51.496Z,63.83
2019-03-21T22:40:20.817Z,62.83
2019-03-21T22:42:50.098Z,62.89
2019-03-21T22:45:19.551Z,63.21
2019-03-21T22:47:50.487Z,63.56
2019-03-21T22:50:19.969Z,64.07
2019-03-21T22:52:49.230Z,63.03
2019-03-21T22:55:18.657Z,62.57
2019-03-21T22:57:48.054Z,63.64
2019-03-21T23:00:18.346Z,63.80
2019-03-21T23:02:47.694Z,63.24
2019-03-21T23:05:17.337Z,64.25
2019-03-21T23:07:46.778Z,64.01
2019-03-21T23:10:16.335Z,62.82
2019-03-21T23:12:48.806Z,63.30
2019-03-21T23:15:18.223Z,63.12
2019-03-21T23:17:48.757Z,64.25
2019-03-21T23:20:18.284Z,64.67
2019-03-21T23:22:47.646Z,64.76
2019-03-21T23:25:17.624Z,65.10
2019-03-21T23:27:46.978Z,64.16
2019-03-21T23:30:16.440Z,63.76
2019-03-21T23:32:46.012Z,63.95
2019-03-21T23:35:18.472Z,63.29
2019-03-21T23:37:47.899Z,64.68
2019-03-21T23:40:17.198Z,64.83
2019-03-21T23:42:46.551Z,63.48
2019-03-21T23:45:15.993Z,63.69
2019-03-21T23:47:45.309Z,64.04
2019-03-21T23:50:14.900Z,63.74
2019-03-21T23:52:44.325Z,63.72
2019-03-21T23:55:13.639Z,64.25
2019-03-21T23:57:42.891Z,64.30
